sensor_id;sensor_type;location;lat;lon;timestamp;P1;durP1;ratioP1;P2;durP2;ratioP2
2320;SDS011;15376;48.540;9.268;2023-04-25T00:00:15;6.63;;;4.10;;
2320;SDS011;15376;48.540;9.268;2023-04-25T00:02:41;5.10;;;4.60;;
2320;SDS011;15376;48.540;9.268;2023-04-25T00:05:07;4.90;;;4.50;;
2320;SDS011;15376;48.540;9.268;2023-04-25T00:07:33;4.30;;;3.80;;
2320;SDS011;15376;48.540;9.268;2023-04-25T00:09:59;5.00;;;4.40;;
2320;SDS011;15376;48.540;9.268;2023-04-25T00:12:25;7.67;;;3.90;;
2320;SDS011;15376;48.540;9.268;2023-04-25T00:14:53;4.93;;;4.10;;
2320;SDS011;15376;48.540;9.268;2023-04-25T00:17:18;6.93;;;4.60;;
2320;SDS011;15376;48.540;9.268;2023-04-25T00:19:44;4.60;;;4.30;;
2320;SDS011;15376;48.540;9.268;2023-04-25T00:22:11;4.90;;;4.03;;
2320;SDS011;15376;48.540;9.268;2023-04-25T00:24:37;4.67;;;4.27;;
2320;SDS011;15376;48.540;9.268;2023-04-25T00:27:02;4.50;;;4.10;;
2320;SDS011;15376;48.540;9.268;2023-04-25T00:29:28;4.83;;;4.13;;
2320;SDS011;15376;48.540;9.268;2023-04-25T00:31:53;5.03;;;4.13;;
2320;SDS011;15376;48.540;9.268;2023-04-25T00:34:18;5.80;;;5.30;;
2320;SDS011;15376;48.540;9.268;2023-04-25T00:36:44;5.83;;;4.47;;
2320;SDS011;15376;48.540;9.268;2023-04-25T00:39:09;4.30;;;3.97;;
2320;SDS011;15376;48.540;9.268;2023-04-25T00:41:35;4.30;;;3.80;;
2320;SDS011;15376;48.540;9.268;2023-04-25T00:44:01;5.23;;;4.80;;
2320;SDS011;15376;48.540;9.268;2023-04-25T00:46:28;4.27;;;3.97;;
2320;SDS011;15376;48.540;9.268;2023-04-25T00:48:53;6.40;;;4.53;;
2320;SDS011;15376;48.540;9.268;2023-04-25T00:51:20;6.10;;;4.27;;
2320;SDS011;15376;48.540;9.268;2023-04-25T00:53:46;4.17;;;3.67;;
2320;SDS011;15376;48.540;9.268;2023-04-25T00:56:14;5.87;;;4.73;;
2320;SDS011;15376;48.540;9.268;2023-04-25T00:58:40;6.40;;;4.53;;
2320;SDS011;15376;48.540;9.268;2023-04-25T01:01:06;7.40;;;4.30;;
2320;SDS011;15376;48.540;9.268;2023-04-25T01:03:33;4.50;;;4.10;;
2320;SDS011;15376;48.540;9.268;2023-04-25T01:06:01;9.07;;;4.43;;
2320;SDS011;15376;48.540;9.268;2023-04-25T01:08:27;6.87;;;4.80;;
2320;SDS011;15376;48.540;9.268;2023-04-25T01:10:53;4.50;;;4.10;;
2320;SDS011;15376;48.540;9.268;2023-04-25T01:13:18;5.37;;;4.73;;
2320;SDS011;15376;48.540;9.268;2023-04-25T01:15:44;6.20;;;4.00;;
2320;SDS011;15376;48.540;9.268;2023-04-25T01:18:10;5.10;;;4.13;;
2320;SDS011;15376;48.540;9.268;2023-04-25T01:20:35;4.20;;;3.53;;
2320;SDS011;15376;48.540;9.268;2023-04-25T01:23:03;5.30;;;3.90;;
2320;SDS011;15376;48.540;9.268;2023-04-25T01:25:29;3.83;;;3.53;;
2320;SDS011;15376;48.540;9.268;2023-04-25T01:27:55;4.47;;;4.07;;
2320;SDS011;15376;48.540;9.268;2023-04-25T01:30:22;4.53;;;4.13;;
2320;SDS011;15376;48.540;9.268;2023-04-25T01:32:47;8.23;;;4.27;;
2320;SDS011;15376;48.540;9.268;2023-04-25T01:35:13;5.23;;;4.10;;
2320;SDS011;15376;48.540;9.268;2023-04-25T01:37:42;6.33;;;4.60;;
2320;SDS011;15376;48.540;9.268;2023-04-25T01:40:09;6.23;;;4.73;;
2320;SDS011;15376;48.540;9.268;2023-04-25T01:42:36;4.60;;;4.20;;
2320;SDS011;15376;48.540;9.268;2023-04-25T01:45:03;4.60;;;4.20;;
2320;SDS011;15376;48.540;9.268;2023-04-25T01:47:29;4.70;;;4.30;;
2320;SDS011;15376;48.540;9.268;2023-04-25T01:49:54;7.47;;;4.83;;
2320;SDS011;15376;48.540;9.268;2023-04-25T01:52:20;4.17;;;3.77;;
2320;SDS011;15376;48.540;9.268;2023-04-25T01:54:45;6.47;;;5.27;;
2320;SDS011;15376;48.540;9.268;2023-04-25T01:57:11;4.50;;;4.10;;
2320;SDS011;15376;48.540;9.268;2023-04-25T01:59:37;4.63;;;4.00;;
2320;SDS011;15376;48.540;9.268;2023-04-25T02:02:02;4.53;;;3.70;;
2320;SDS011;15376;48.540;9.268;2023-04-25T02:04:31;7.30;;;4.80;;
2320;SDS011;15376;48.540;9.268;2023-04-25T02:06:57;4.97;;;4.47;;
2320;SDS011;15376;48.540;9.268;2023-04-25T02:09:22;5.40;;;4.00;;
2320;SDS011;15376;48.540;9.268;2023-04-25T02:11:48;5.90;;;4.80;;
2320;SDS011;15376;48.540;9.268;2023-04-25T02:14:13;5.07;;;4.67;;
2320;SDS011;15376;48.540;9.268;2023-04-25T02:16:38;5.50;;;4.40;;
2320;SDS011;15376;48.540;9.268;2023-04-25T02:19:04;4.93;;;4.43;;
2320;SDS011;15376;48.540;9.268;2023-04-25T02:21:30;5.10;;;4.70;;
2320;SDS011;15376;48.540;9.268;2023-04-25T02:23:56;7.13;;;4.43;;
2320;SDS011;15376;48.540;9.268;2023-04-25T02:26:21;5.30;;;4.67;;
2320;SDS011;15376;48.540;9.268;2023-04-25T02:28:48;4.60;;;4.20;;
2320;SDS011;15376;48.540;9.268;2023-04-25T02:31:14;5.90;;;4.70;;
2320;SDS011;15376;48.540;9.268;2023-04-25T02:33:39;7.83;;;4.33;;
2320;SDS011;15376;48.540;9.268;2023-04-25T02:36:05;6.83;;;4.70;;
2320;SDS011;15376;48.540;9.268;2023-04-25T02:38:30;5.03;;;4.53;;
2320;SDS011;15376;48.540;9.268;2023-04-25T02:40:56;6.40;;;5.10;;
2320;SDS011;15376;48.540;9.268;2023-04-25T02:43:21;6.23;;;4.20;;
2320;SDS011;15376;48.540;9.268;2023-04-25T02:45:47;5.23;;;4.73;;
2320;SDS011;15376;48.540;9.268;2023-04-25T02:48:12;6.50;;;4.33;;
2320;SDS011;15376;48.540;9.268;2023-04-25T02:50:37;5.20;;;4.53;;
2320;SDS011;15376;48.540;9.268;2023-04-25T02:53:03;4.10;;;3.80;;
2320;SDS011;15376;48.540;9.268;2023-04-25T02:55:28;4.27;;;3.53;;
2320;SDS011;15376;48.540;9.268;2023-04-25T02:57:53;8.53;;;4.80;;
2320;SDS011;15376;48.540;9.268;2023-04-25T03:00:20;4.90;;;4.33;;
2320;SDS011;15376;48.540;9.268;2023-04-25T03:02:47;5.73;;;5.23;;
2320;SDS011;15376;48.540;9.268;2023-04-25T03:05:12;5.20;;;4.53;;
2320;SDS011;15376;48.540;9.268;2023-04-25T03:07:37;5.40;;;4.47;;
2320;SDS011;15376;48.540;9.268;2023-04-25T03:10:04;5.40;;;4.33;;
2320;SDS011;15376;48.540;9.268;2023-04-25T03:12:32;5.10;;;4.30;;
2320;SDS011;15376;48.540;9.268;2023-04-25T03:14:58;6.40;;;4.57;;
2320;SDS011;15376;48.540;9.268;2023-04-25T03:17:23;4.83;;;4.30;;
2320;SDS011;15376;48.540;9.268;2023-04-25T03:19:49;5.27;;;4.80;;
2320;SDS011;15376;48.540;9.268;2023-04-25T03:22:14;4.10;;;3.77;;
2320;SDS011;15376;48.540;9.268;2023-04-25T03:24:40;7.33;;;4.10;;
2320;SDS011;15376;48.540;9.268;2023-04-25T03:27:05;8.47;;;4.53;;
2320;SDS011;15376;48.540;9.268;2023-04-25T03:29:31;7.70;;;4.80;;
2320;SDS011;15376;48.540;9.268;2023-04-25T03:31:56;5.97;;;4.40;;
2320;SDS011;15376;48.540;9.268;2023-04-25T03:34:21;7.53;;;4.50;;
2320;SDS011;15376;48.540;9.268;2023-04-25T03:36:47;5.83;;;3.93;;
2320;SDS011;15376;48.540;9.268;2023-04-25T03:39:12;9.80;;;5.37;;
2320;SDS011;15376;48.540;9.268;2023-04-25T03:41:38;5.53;;;4.87;;
2320;SDS011;15376;48.540;9.268;2023-04-25T03:44:03;10.53;;;5.53;;
2320;SDS011;15376;48.540;9.268;2023-04-25T03:46:28;5.37;;;4.93;;
2320;SDS011;15376;48.540;9.268;2023-04-25T03:48:54;6.20;;;5.37;;
2320;SDS011;15376;48.540;9.268;2023-04-25T03:51:19;6.20;;;4.60;;
2320;SDS011;15376;48.540;9.268;2023-04-25T03:53:45;5.53;;;4.70;;
2320;SDS011;15376;48.540;9.268;2023-04-25T03:56:10;6.37;;;5.10;;
2320;SDS011;15376;48.540;9.268;2023-04-25T03:58:36;6.80;;;4.80;;
2320;SDS011;15376;48.540;9.268;2023-04-25T04:01:01;4.77;;;4.47;;
2320;SDS011;15376;48.540;9.268;2023-04-25T04:03:32;5.80;;;5.00;;
2320;SDS011;15376;48.540;9.268;2023-04-25T04:05:58;8.33;;;5.43;;
2320;SDS011;15376;48.540;9.268;2023-04-25T04:08:24;10.73;;;5.77;;
2320;SDS011;15376;48.540;9.268;2023-04-25T04:10:49;6.60;;;5.50;;
2320;SDS011;15376;48.540;9.268;2023-04-25T04:13:15;5.13;;;4.63;;
2320;SDS011;15376;48.540;9.268;2023-04-25T04:15:40;10.63;;;5.90;;
2320;SDS011;15376;48.540;9.268;2023-04-25T04:18:05;5.63;;;5.10;;
2320;SDS011;15376;48.540;9.268;2023-04-25T04:20:31;5.50;;;4.97;;
2320;SDS011;15376;48.540;9.268;2023-04-25T04:22:56;7.33;;;5.83;;
2320;SDS011;15376;48.540;9.268;2023-04-25T04:25:22;8.47;;;4.60;;
2320;SDS011;15376;48.540;9.268;2023-04-25T04:27:47;5.47;;;4.90;;
2320;SDS011;15376;48.540;9.268;2023-04-25T04:30:12;7.53;;;4.90;;
2320;SDS011;15376;48.540;9.268;2023-04-25T04:32:38;5.23;;;4.73;;
2320;SDS011;15376;48.540;9.268;2023-04-25T04:35:03;6.73;;;5.63;;
2320;SDS011;15376;48.540;9.268;2023-04-25T04:37:29;5.87;;;5.43;;
2320;SDS011;15376;48.540;9.268;2023-04-25T04:39:55;13.93;;;5.77;;
2320;SDS011;15376;48.540;9.268;2023-04-25T04:42:21;7.07;;;4.90;;
2320;SDS011;15376;48.540;9.268;2023-04-25T04:44:46;8.40;;;5.77;;
2320;SDS011;15376;48.540;9.268;2023-04-25T04:47:12;6.47;;;5.87;;
2320;SDS011;15376;48.540;9.268;2023-04-25T04:49:39;11.10;;;5.83;;
2320;SDS011;15376;48.540;9.268;2023-04-25T04:52:04;8.30;;;5.17;;
2320;SDS011;15376;48.540;9.268;2023-04-25T04:54:30;6.00;;;5.40;;
2320;SDS011;15376;48.540;9.268;2023-04-25T04:56:55;5.50;;;5.00;;
2320;SDS011;15376;48.540;9.268;2023-04-25T04:59:21;5.80;;;4.93;;
2320;SDS011;15376;48.540;9.268;2023-04-25T05:01:46;6.00;;;5.40;;
2320;SDS011;15376;48.540;9.268;2023-04-25T05:04:12;7.33;;;6.17;;
2320;SDS011;15376;48.540;9.268;2023-04-25T05:06:37;6.20;;;5.70;;
2320;SDS011;15376;48.540;9.268;2023-04-25T05:09:02;6.43;;;5.27;;
2320;SDS011;15376;48.540;9.268;2023-04-25T05:11:28;5.20;;;4.80;;
2320;SDS011;15376;48.540;9.268;2023-04-25T05:13:54;9.23;;;5.57;;
2320;SDS011;15376;48.540;9.268;2023-04-25T05:16:19;7.07;;;5.33;;
2320;SDS011;15376;48.540;9.268;2023-04-25T05:18:45;6.47;;;4.60;;
2320;SDS011;15376;48.540;9.268;2023-04-25T05:21:11;6.40;;;5.67;;
2320;SDS011;15376;48.540;9.268;2023-04-25T05:23:36;7.30;;;4.63;;
2320;SDS011;15376;48.540;9.268;2023-04-25T05:26:02;6.37;;;4.60;;
2320;SDS011;15376;48.540;9.268;2023-04-25T05:28:27;5.73;;;5.20;;
2320;SDS011;15376;48.540;9.268;2023-04-25T05:30:53;5.83;;;4.80;;
2320;SDS011;15376;48.540;9.268;2023-04-25T05:33:18;6.10;;;5.50;;
2320;SDS011;15376;48.540;9.268;2023-04-25T05:35:44;6.97;;;5.33;;
2320;SDS011;15376;48.540;9.268;2023-04-25T05:38:09;5.17;;;4.73;;
2320;SDS011;15376;48.540;9.268;2023-04-25T05:40:35;5.63;;;4.60;;
2320;SDS011;15376;48.540;9.268;2023-04-25T05:43:01;4.90;;;4.50;;
2320;SDS011;15376;48.540;9.268;2023-04-25T05:45:26;6.90;;;5.70;;
2320;SDS011;15376;48.540;9.268;2023-04-25T05:47:52;5.00;;;4.53;;
2320;SDS011;15376;48.540;9.268;2023-04-25T05:50:17;5.10;;;4.60;;
2320;SDS011;15376;48.540;9.268;2023-04-25T05:52:42;5.83;;;4.23;;
2320;SDS011;15376;48.540;9.268;2023-04-25T05:55:08;4.63;;;3.70;;
2320;SDS011;15376;48.540;9.268;2023-04-25T05:57:33;5.77;;;5.20;;
2320;SDS011;15376;48.540;9.268;2023-04-25T05:59:59;5.13;;;4.67;;
2320;SDS011;15376;48.540;9.268;2023-04-25T06:02:24;5.10;;;3.93;;
2320;SDS011;15376;48.540;9.268;2023-04-25T06:04:50;5.47;;;4.97;;
2320;SDS011;15376;48.540;9.268;2023-04-25T06:07:16;6.80;;;5.50;;
2320;SDS011;15376;48.540;9.268;2023-04-25T06:09:42;5.30;;;4.67;;
2320;SDS011;15376;48.540;9.268;2023-04-25T06:12:08;5.27;;;4.87;;
2320;SDS011;15376;48.540;9.268;2023-04-25T06:14:33;4.90;;;4.53;;
2320;SDS011;15376;48.540;9.268;2023-04-25T06:16:59;5.63;;;4.73;;
2320;SDS011;15376;48.540;9.268;2023-04-25T06:19:24;6.93;;;4.97;;
2320;SDS011;15376;48.540;9.268;2023-04-25T06:21:50;4.73;;;4.33;;
2320;SDS011;15376;48.540;9.268;2023-04-25T06:24:15;5.30;;;4.80;;
2320;SDS011;15376;48.540;9.268;2023-04-25T06:26:44;4.60;;;4.20;;
2320;SDS011;15376;48.540;9.268;2023-04-25T06:29:09;3.93;;;3.63;;
2320;SDS011;15376;48.540;9.268;2023-04-25T06:31:35;5.43;;;4.17;;
2320;SDS011;15376;48.540;9.268;2023-04-25T06:34:00;3.60;;;3.30;;
2320;SDS011;15376;48.540;9.268;2023-04-25T06:36:25;4.30;;;3.80;;
2320;SDS011;15376;48.540;9.268;2023-04-25T06:38:52;4.50;;;3.73;;
2320;SDS011;15376;48.540;9.268;2023-04-25T06:41:18;6.00;;;3.63;;
2320;SDS011;15376;48.540;9.268;2023-04-25T06:43:43;4.50;;;4.07;;
2320;SDS011;15376;48.540;9.268;2023-04-25T06:46:09;4.10;;;3.80;;
2320;SDS011;15376;48.540;9.268;2023-04-25T06:48:35;5.37;;;4.23;;
2320;SDS011;15376;48.540;9.268;2023-04-25T06:51:00;5.13;;;3.60;;
2320;SDS011;15376;48.540;9.268;2023-04-25T06:53:25;4.13;;;3.80;;
2320;SDS011;15376;48.540;9.268;2023-04-25T06:55:51;4.40;;;3.97;;
2320;SDS011;15376;48.540;9.268;2023-04-25T06:58:16;5.17;;;4.10;;
2320;SDS011;15376;48.540;9.268;2023-04-25T07:00:42;4.03;;;3.60;;
2320;SDS011;15376;48.540;9.268;2023-04-25T07:03:07;4.93;;;4.10;;
2320;SDS011;15376;48.540;9.268;2023-04-25T07:05:33;4.20;;;3.77;;
2320;SDS011;15376;48.540;9.268;2023-04-25T07:07:58;4.20;;;3.80;;
2320;SDS011;15376;48.540;9.268;2023-04-25T07:10:24;3.63;;;3.40;;
2320;SDS011;15376;48.540;9.268;2023-04-25T07:12:50;7.73;;;3.47;;
2320;SDS011;15376;48.540;9.268;2023-04-25T07:15:15;5.27;;;4.00;;
2320;SDS011;15376;48.540;9.268;2023-04-25T07:17:41;4.70;;;3.60;;
2320;SDS011;15376;48.540;9.268;2023-04-25T07:20:06;5.07;;;4.43;;
2320;SDS011;15376;48.540;9.268;2023-04-25T07:22:32;4.20;;;3.87;;
2320;SDS011;15376;48.540;9.268;2023-04-25T07:24:58;7.47;;;3.13;;
2320;SDS011;15376;48.540;9.268;2023-04-25T07:27:23;5.17;;;4.30;;
2320;SDS011;15376;48.540;9.268;2023-04-25T07:29:48;4.00;;;3.70;;
2320;SDS011;15376;48.540;9.268;2023-04-25T07:32:14;7.87;;;4.03;;
2320;SDS011;15376;48.540;9.268;2023-04-25T07:34:39;6.10;;;4.20;;
2320;SDS011;15376;48.540;9.268;2023-04-25T07:37:05;4.63;;;4.23;;
2320;SDS011;15376;48.540;9.268;2023-04-25T07:39:30;4.30;;;3.97;;
2320;SDS011;15376;48.540;9.268;2023-04-25T07:41:56;4.87;;;4.40;;
2320;SDS011;15376;48.540;9.268;2023-04-25T07:44:23;4.23;;;3.83;;
2320;SDS011;15376;48.540;9.268;2023-04-25T07:46:49;4.00;;;3.70;;
2320;SDS011;15376;48.540;9.268;2023-04-25T07:49:14;3.50;;;3.30;;
2320;SDS011;15376;48.540;9.268;2023-04-25T07:51:40;3.00;;;2.80;;
2320;SDS011;15376;48.540;9.268;2023-04-25T07:54:06;4.90;;;2.93;;
2320;SDS011;15376;48.540;9.268;2023-04-25T07:56:31;3.03;;;2.73;;
2320;SDS011;15376;48.540;9.268;2023-04-25T07:58:57;4.10;;;3.23;;
2320;SDS011;15376;48.540;9.268;2023-04-25T08:01:22;4.00;;;3.13;;
2320;SDS011;15376;48.540;9.268;2023-04-25T08:03:48;3.13;;;2.93;;
2320;SDS011;15376;48.540;9.268;2023-04-25T08:06:13;3.70;;;3.40;;
2320;SDS011;15376;48.540;9.268;2023-04-25T08:08:38;3.97;;;3.57;;
2320;SDS011;15376;48.540;9.268;2023-04-25T08:11:04;5.07;;;4.67;;
2320;SDS011;15376;48.540;9.268;2023-04-25T08:13:30;4.50;;;3.67;;
2320;SDS011;15376;48.540;9.268;2023-04-25T08:15:55;5.63;;;4.70;;
2320;SDS011;15376;48.540;9.268;2023-04-25T08:18:20;5.07;;;4.57;;
2320;SDS011;15376;48.540;9.268;2023-04-25T08:20:46;6.07;;;5.47;;
2320;SDS011;15376;48.540;9.268;2023-04-25T08:23:11;5.70;;;4.53;;
2320;SDS011;15376;48.540;9.268;2023-04-25T08:25:37;8.33;;;5.70;;
2320;SDS011;15376;48.540;9.268;2023-04-25T08:28:02;6.40;;;5.83;;
2320;SDS011;15376;48.540;9.268;2023-04-25T08:30:28;7.03;;;6.33;;
2320;SDS011;15376;48.540;9.268;2023-04-25T08:32:54;6.53;;;5.93;;
2320;SDS011;15376;48.540;9.268;2023-04-25T08:35:19;7.83;;;7.10;;
2320;SDS011;15376;48.540;9.268;2023-04-25T08:37:45;6.70;;;6.10;;
2320;SDS011;15376;48.540;9.268;2023-04-25T08:40:11;10.53;;;9.03;;
2320;SDS011;15376;48.540;9.268;2023-04-25T08:42:39;8.60;;;6.63;;
2320;SDS011;15376;48.540;9.268;2023-04-25T08:45:07;7.83;;;6.77;;
2320;SDS011;15376;48.540;9.268;2023-04-25T08:47:33;6.77;;;6.17;;
2320;SDS011;15376;48.540;9.268;2023-04-25T08:50:02;11.60;;;10.50;;
2320;SDS011;15376;48.540;9.268;2023-04-25T08:52:30;8.23;;;7.43;;
2320;SDS011;15376;48.540;9.268;2023-04-25T08:55:02;7.70;;;7.00;;
2320;SDS011;15376;48.540;9.268;2023-04-25T08:57:29;11.33;;;7.27;;
2320;SDS011;15376;48.540;9.268;2023-04-25T08:59:56;10.33;;;7.97;;
2320;SDS011;15376;48.540;9.268;2023-04-25T09:02:22;6.30;;;5.80;;
2320;SDS011;15376;48.540;9.268;2023-04-25T09:04:49;7.20;;;6.50;;
2320;SDS011;15376;48.540;9.268;2023-04-25T09:07:15;6.23;;;5.60;;
2320;SDS011;15376;48.540;9.268;2023-04-25T09:09:43;14.53;;;13.10;;
2320;SDS011;15376;48.540;9.268;2023-04-25T09:12:09;6.37;;;5.53;;
2320;SDS011;15376;48.540;9.268;2023-04-25T09:14:35;6.37;;;5.87;;
2320;SDS011;15376;48.540;9.268;2023-04-25T09:17:01;6.13;;;5.50;;
2320;SDS011;15376;48.540;9.268;2023-04-25T09:19:33;6.47;;;5.77;;
2320;SDS011;15376;48.540;9.268;2023-04-25T09:22:01;5.70;;;5.10;;
2320;SDS011;15376;48.540;9.268;2023-04-25T09:24:31;5.90;;;5.30;;
2320;SDS011;15376;48.540;9.268;2023-04-25T09:27:07;8.13;;;5.90;;
2320;SDS011;15376;48.540;9.268;2023-04-25T09:29:40;6.60;;;6.00;;
2320;SDS011;15376;48.540;9.268;2023-04-25T09:32:13;8.53;;;6.13;;
2320;SDS011;15376;48.540;9.268;2023-04-25T09:34:46;7.50;;;6.80;;
2320;SDS011;15376;48.540;9.268;2023-04-25T09:37:20;7.43;;;6.43;;
2320;SDS011;15376;48.540;9.268;2023-04-25T09:39:50;6.50;;;5.83;;
2320;SDS011;15376;48.540;9.268;2023-04-25T09:42:17;11.90;;;7.27;;
2320;SDS011;15376;48.540;9.268;2023-04-25T09:44:46;8.13;;;7.07;;
2320;SDS011;15376;48.540;9.268;2023-04-25T09:47:12;7.37;;;6.17;;
2320;SDS011;15376;48.540;9.268;2023-04-25T09:49:40;6.93;;;6.23;;
2320;SDS011;15376;48.540;9.268;2023-04-25T09:52:10;7.00;;;6.33;;
2320;SDS011;15376;48.540;9.268;2023-04-25T09:54:42;10.43;;;7.70;;
2320;SDS011;15376;48.540;9.268;2023-04-25T09:57:16;8.10;;;5.87;;
2320;SDS011;15376;48.540;9.268;2023-04-25T09:59:46;3.97;;;3.67;;
2320;SDS011;15376;48.540;9.268;2023-04-25T10:02:14;5.60;;;5.10;;
2320;SDS011;15376;48.540;9.268;2023-04-25T10:04:41;6.43;;;3.90;;
2320;SDS011;15376;48.540;9.268;2023-04-25T10:07:09;4.37;;;3.97;;
2320;SDS011;15376;48.540;9.268;2023-04-25T10:09:36;5.40;;;4.97;;
2320;SDS011;15376;48.540;9.268;2023-04-25T10:12:04;6.63;;;5.93;;
2320;SDS011;15376;48.540;9.268;2023-04-25T10:14:31;6.07;;;5.50;;
2320;SDS011;15376;48.540;9.268;2023-04-25T10:16:59;4.83;;;4.33;;
2320;SDS011;15376;48.540;9.268;2023-04-25T10:19:26;3.10;;;2.90;;
2320;SDS011;15376;48.540;9.268;2023-04-25T10:24:29;2.93;;;2.73;;
2320;SDS011;15376;48.540;9.268;2023-04-25T10:26:55;2.70;;;2.50;;
2320;SDS011;15376;48.540;9.268;2023-04-25T10:29:25;3.23;;;2.93;;
2320;SDS011;15376;48.540;9.268;2023-04-25T10:31:51;3.77;;;3.47;;
2320;SDS011;15376;48.540;9.268;2023-04-25T10:34:17;3.97;;;3.67;;
2320;SDS011;15376;48.540;9.268;2023-04-25T10:36:44;3.93;;;2.87;;
2320;SDS011;15376;48.540;9.268;2023-04-25T10:39:24;3.63;;;3.30;;
2320;SDS011;15376;48.540;9.268;2023-04-25T10:41:58;4.20;;;3.40;;
2320;SDS011;15376;48.540;9.268;2023-04-25T10:44:27;4.33;;;4.00;;
2320;SDS011;15376;48.540;9.268;2023-04-25T10:46:57;3.63;;;3.40;;
2320;SDS011;15376;48.540;9.268;2023-04-25T10:49:30;4.27;;;3.00;;
2320;SDS011;15376;48.540;9.268;2023-04-25T10:52:16;2.87;;;2.40;;
2320;SDS011;15376;48.540;9.268;2023-04-25T10:54:47;2.20;;;2.10;;
2320;SDS011;15376;48.540;9.268;2023-04-25T10:57:29;1.70;;;1.60;;
2320;SDS011;15376;48.540;9.268;2023-04-25T10:59:59;1.60;;;1.50;;
2320;SDS011;15376;48.540;9.268;2023-04-25T11:02:30;3.33;;;3.13;;
2320;SDS011;15376;48.540;9.268;2023-04-25T11:04:55;1.73;;;1.50;;
2320;SDS011;15376;48.540;9.268;2023-04-25T11:10:32;1.60;;;1.50;;
2320;SDS011;15376;48.540;9.268;2023-04-25T11:13:00;1.50;;;1.40;;
2320;SDS011;15376;48.540;9.268;2023-04-25T11:15:26;3.37;;;1.90;;
2320;SDS011;15376;48.540;9.268;2023-04-25T11:17:52;2.03;;;1.57;;
2320;SDS011;15376;48.540;9.268;2023-04-25T11:20:18;1.83;;;1.73;;
2320;SDS011;15376;48.540;9.268;2023-04-25T11:22:44;2.50;;;1.70;;
2320;SDS011;15376;48.540;9.268;2023-04-25T11:25:11;1.53;;;1.43;;
2320;SDS011;15376;48.540;9.268;2023-04-25T11:27:53;2.00;;;1.90;;
2320;SDS011;15376;48.540;9.268;2023-04-25T11:30:20;2.07;;;1.70;;
2320;SDS011;15376;48.540;9.268;2023-04-25T11:32:46;3.20;;;2.90;;
2320;SDS011;15376;48.540;9.268;2023-04-25T11:35:12;1.80;;;1.70;;
2320;SDS011;15376;48.540;9.268;2023-04-25T11:37:41;3.20;;;3.00;;
2320;SDS011;15376;48.540;9.268;2023-04-25T11:40:10;2.10;;;2.00;;
2320;SDS011;15376;48.540;9.268;2023-04-25T11:42:36;1.90;;;1.80;;
2320;SDS011;15376;48.540;9.268;2023-04-25T11:45:03;1.57;;;1.47;;
2320;SDS011;15376;48.540;9.268;2023-04-25T11:47:29;2.50;;;2.30;;
2320;SDS011;15376;48.540;9.268;2023-04-25T11:49:57;1.80;;;1.70;;
2320;SDS011;15376;48.540;9.268;2023-04-25T11:52:24;2.33;;;1.70;;
2320;SDS011;15376;48.540;9.268;2023-04-25T11:54:49;1.50;;;1.40;;
2320;SDS011;15376;48.540;9.268;2023-04-25T11:57:18;1.80;;;1.70;;
2320;SDS011;15376;48.540;9.268;2023-04-25T11:59:44;1.50;;;1.40;;
2320;SDS011;15376;48.540;9.268;2023-04-25T12:02:23;1.60;;;1.50;;
2320;SDS011;15376;48.540;9.268;2023-04-25T12:04:50;1.50;;;1.30;;
2320;SDS011;15376;48.540;9.268;2023-04-25T12:07:15;2.83;;;1.37;;
2320;SDS011;15376;48.540;9.268;2023-04-25T12:09:41;2.50;;;1.83;;
2320;SDS011;15376;48.540;9.268;2023-04-25T12:12:09;1.50;;;1.27;;
2320;SDS011;15376;48.540;9.268;2023-04-25T12:14:35;1.83;;;1.30;;
2320;SDS011;15376;48.540;9.268;2023-04-25T12:17:01;1.30;;;1.20;;
2320;SDS011;15376;48.540;9.268;2023-04-25T12:19:32;1.60;;;1.50;;
2320;SDS011;15376;48.540;9.268;2023-04-25T12:21:59;1.40;;;1.30;;
2320;SDS011;15376;48.540;9.268;2023-04-25T12:24:26;1.60;;;1.50;;
2320;SDS011;15376;48.540;9.268;2023-04-25T12:27:02;1.30;;;1.20;;
2320;SDS011;15376;48.540;9.268;2023-04-25T12:29:29;1.80;;;1.70;;
2320;SDS011;15376;48.540;9.268;2023-04-25T12:31:56;1.50;;;1.40;;
2320;SDS011;15376;48.540;9.268;2023-04-25T12:34:22;1.47;;;1.37;;
2320;SDS011;15376;48.540;9.268;2023-04-25T12:36:49;1.43;;;1.33;;
2320;SDS011;15376;48.540;9.268;2023-04-25T12:39:18;1.90;;;1.80;;
2320;SDS011;15376;48.540;9.268;2023-04-25T12:41:47;3.53;;;3.33;;
2320;SDS011;15376;48.540;9.268;2023-04-25T12:44:13;2.70;;;2.17;;
2320;SDS011;15376;48.540;9.268;2023-04-25T12:46:39;1.37;;;1.27;;
2320;SDS011;15376;48.540;9.268;2023-04-25T12:49:05;1.60;;;1.50;;
2320;SDS011;15376;48.540;9.268;2023-04-25T12:51:32;2.23;;;1.70;;
2320;SDS011;15376;48.540;9.268;2023-04-25T12:53:58;1.70;;;1.50;;
2320;SDS011;15376;48.540;9.268;2023-04-25T12:56:25;1.73;;;1.60;;
2320;SDS011;15376;48.540;9.268;2023-04-25T12:58:52;1.63;;;1.53;;
2320;SDS011;15376;48.540;9.268;2023-04-25T13:01:17;1.50;;;1.40;;
2320;SDS011;15376;48.540;9.268;2023-04-25T13:03:43;1.67;;;1.57;;
2320;SDS011;15376;48.540;9.268;2023-04-25T13:06:08;1.50;;;1.40;;
2320;SDS011;15376;48.540;9.268;2023-04-25T13:08:33;1.63;;;1.53;;
2320;SDS011;15376;48.540;9.268;2023-04-25T13:11:00;1.70;;;1.60;;
2320;SDS011;15376;48.540;9.268;2023-04-25T13:13:25;2.20;;;1.97;;
2320;SDS011;15376;48.540;9.268;2023-04-25T13:15:52;1.57;;;1.47;;
2320;SDS011;15376;48.540;9.268;2023-04-25T13:18:18;2.53;;;1.90;;
2320;SDS011;15376;48.540;9.268;2023-04-25T13:20:44;1.70;;;1.60;;
2320;SDS011;15376;48.540;9.268;2023-04-25T13:23:09;1.60;;;1.50;;
2320;SDS011;15376;48.540;9.268;2023-04-25T13:25:34;1.70;;;1.60;;
2320;SDS011;15376;48.540;9.268;2023-04-25T13:28:00;1.70;;;1.60;;
2320;SDS011;15376;48.540;9.268;2023-04-25T13:30:26;1.80;;;1.60;;
2320;SDS011;15376;48.540;9.268;2023-04-25T13:32:52;1.80;;;1.70;;
2320;SDS011;15376;48.540;9.268;2023-04-25T13:35:17;2.20;;;2.00;;
2320;SDS011;15376;48.540;9.268;2023-04-25T13:37:43;1.70;;;1.60;;
2320;SDS011;15376;48.540;9.268;2023-04-25T13:40:09;2.10;;;2.00;;
2320;SDS011;15376;48.540;9.268;2023-04-25T13:42:36;2.07;;;1.80;;
2320;SDS011;15376;48.540;9.268;2023-04-25T13:45:02;1.67;;;1.57;;
2320;SDS011;15376;48.540;9.268;2023-04-25T13:47:28;2.60;;;2.40;;
2320;SDS011;15376;48.540;9.268;2023-04-25T13:49:54;34.63;;;23.43;;
2320;SDS011;15376;48.540;9.268;2023-04-25T13:52:19;23.03;;;14.77;;
2320;SDS011;15376;48.540;9.268;2023-04-25T13:54:45;8.70;;;7.60;;
2320;SDS011;15376;48.540;9.268;2023-04-25T13:57:10;6.50;;;5.33;;
2320;SDS011;15376;48.540;9.268;2023-04-25T13:59:36;9.43;;;8.13;;
2320;SDS011;15376;48.540;9.268;2023-04-25T14:02:02;3.30;;;2.97;;
2320;SDS011;15376;48.540;9.268;2023-04-25T14:04:27;5.07;;;4.57;;
2320;SDS011;15376;48.540;9.268;2023-04-25T14:06:53;7.43;;;4.27;;
2320;SDS011;15376;48.540;9.268;2023-04-25T14:09:19;11.27;;;8.97;;
2320;SDS011;15376;48.540;9.268;2023-04-25T14:11:45;12.67;;;11.40;;
2320;SDS011;15376;48.540;9.268;2023-04-25T14:14:11;4.23;;;3.83;;
2320;SDS011;15376;48.540;9.268;2023-04-25T14:16:37;4.13;;;3.80;;
2320;SDS011;15376;48.540;9.268;2023-04-25T14:19:03;3.13;;;2.93;;
2320;SDS011;15376;48.540;9.268;2023-04-25T14:21:28;3.30;;;3.07;;
2320;SDS011;15376;48.540;9.268;2023-04-25T14:23:56;3.93;;;3.63;;
2320;SDS011;15376;48.540;9.268;2023-04-25T14:26:21;2.80;;;2.60;;
2320;SDS011;15376;48.540;9.268;2023-04-25T14:28:47;2.87;;;2.67;;
2320;SDS011;15376;48.540;9.268;2023-04-25T14:31:12;3.57;;;3.27;;
2320;SDS011;15376;48.540;9.268;2023-04-25T14:33:37;3.17;;;2.97;;
2320;SDS011;15376;48.540;9.268;2023-04-25T14:36:06;3.33;;;3.03;;
2320;SDS011;15376;48.540;9.268;2023-04-25T14:38:32;3.50;;;2.90;;
2320;SDS011;15376;48.540;9.268;2023-04-25T14:40:57;5.27;;;4.70;;
2320;SDS011;15376;48.540;9.268;2023-04-25T14:43:23;5.90;;;5.30;;
2320;SDS011;15376;48.540;9.268;2023-04-25T14:45:48;4.60;;;4.00;;
2320;SDS011;15376;48.540;9.268;2023-04-25T14:48:14;5.23;;;4.77;;
2320;SDS011;15376;48.540;9.268;2023-04-25T14:50:40;5.83;;;5.23;;
2320;SDS011;15376;48.540;9.268;2023-04-25T14:53:05;9.60;;;6.60;;
2320;SDS011;15376;48.540;9.268;2023-04-25T14:55:31;5.37;;;4.20;;
2320;SDS011;15376;48.540;9.268;2023-04-25T14:57:58;4.13;;;3.30;;
2320;SDS011;15376;48.540;9.268;2023-04-25T15:00:24;2.77;;;2.57;;